createdAt,value
2019-05-26T00:00:10.090Z,12.60
2019-05-26T00:02:41.847Z,12.70
2019-05-26T00:05:13.349Z,12.80
2019-05-26T00:07:44.889Z,12.90
2019-05-26T00:10:16.474Z,13.00
2019-05-26T00:12:48.064Z,12.90
2019-05-26T00:15:19.985Z,13.00
2019-05-26T00:17:51.966Z,12.90
2019-05-26T00:20:23.491Z,12.90
2019-05-26T00:22:54.981Z,12.90
2019-05-26T00:25:26.645Z,13.00
2019-05-26T00:27:58.134Z,13.10
2019-05-26T00:30:29.643Z,13.10
2019-05-26T00:33:01.249Z,13.20
2019-05-26T00:35:32.847Z,13.30
2019-05-26T00:38:04.652Z,13.30
2019-05-26T00:40:36.145Z,13.20
2019-05-26T00:43:07.681Z,13.10
2019-05-26T00:45:39.544Z,13.00
2019-05-26T00:48:11.080Z,13.00
2019-05-26T00:50:42.623Z,12.80
2019-05-26T00:53:14.414Z,12.90
2019-05-26T00:55:45.911Z,13.10
2019-05-26T00:58:17.423Z,13.10
2019-05-26T01:00:49.006Z,13.10
2019-05-26T01:03:20.555Z,13.10
2019-05-26T01:05:52.043Z,13.00
2019-05-26T01:08:23.588Z,13.00
2019-05-26T01:10:55.076Z,13.00
2019-05-26T01:13:26.554Z,12.90
2019-05-26T01:15:58.037Z,12.80
2019-05-26T01:18:29.768Z,12.90
2019-05-26T01:21:01.700Z,12.90
2019-05-26T01:23:33.173Z,12.80
2019-05-26T01:26:05.047Z,12.80
2019-05-26T01:28:36.608Z,12.80
2019-05-26T01:31:08.159Z,12.90
2019-05-26T01:33:39.823Z,12.80
2019-05-26T01:36:11.344Z,12.60
2019-05-26T01:38:43.329Z,12.40
2019-05-26T01:41:14.848Z,12.20
2019-05-26T01:43:46.440Z,12.10
2019-05-26T01:46:17.947Z,11.90
2019-05-26T01:48:49.746Z,11.80
2019-05-26T01:51:21.248Z,11.60
2019-05-26T01:53:54.384Z,11.50
2019-05-26T01:56:26.271Z,11.30
2019-05-26T01:58:58.021Z,11.20
2019-05-26T02:01:29.507Z,11.00
2019-05-26T02:04:01.008Z,11.00
2019-05-26T02:06:32.609Z,10.80
2019-05-26T02:09:06.266Z,10.70
2019-05-26T02:11:37.906Z,10.60
2019-05-26T02:14:09.448Z,10.60
2019-05-26T02:16:41.290Z,10.50
2019-05-26T02:19:14.720Z,10.40
2019-05-26T02:21:46.476Z,10.40
2019-05-26T02:24:17.966Z,10.30
2019-05-26T02:26:49.494Z,10.10
2019-05-26T02:29:21.243Z,10.20
2019-05-26T02:31:52.771Z,10.10
2019-05-26T02:34:24.257Z,10.10
2019-05-26T02:36:55.806Z,10.00
2019-05-26T02:39:27.544Z,10.00
2019-05-26T02:41:59.383Z,10.00
2019-05-26T02:44:31.434Z,9.90
2019-05-26T02:47:03.520Z,9.90
2019-05-26T02:49:35.008Z,9.80
2019-05-26T02:52:06.492Z,9.80
2019-05-26T02:54:37.928Z,9.70
2019-05-26T02:57:09.450Z,9.60
2019-05-26T02:59:40.849Z,9.50
2019-05-26T03:02:12.669Z,9.50
2019-05-26T03:04:44.578Z,9.50
2019-05-26T03:07:18.084Z,9.40
2019-05-26T03:09:51.563Z,9.40
2019-05-26T03:12:27.362Z,9.40
2019-05-26T03:15:01.234Z,9.40
2019-05-26T03:17:35.538Z,9.30
2019-05-26T03:20:07.678Z,9.20
2019-05-26T03:22:42.372Z,9.20
2019-05-26T03:25:14.030Z,9.20
2019-05-26T03:27:45.548Z,9.20
2019-05-26T03:30:17.126Z,9.20
2019-05-26T03:32:48.975Z,9.30
2019-05-26T03:35:20.487Z,9.30
2019-05-26T03:37:51.960Z,9.30
2019-05-26T03:40:23.413Z,9.30
2019-05-26T03:42:55.342Z,9.30
2019-05-26T03:45:46.700Z,9.30
2019-05-26T03:48:18.101Z,9.40
2019-05-26T03:50:49.610Z,9.50
2019-05-26T03:53:21.008Z,9.60
2019-05-26T03:55:52.339Z,9.70
2019-05-26T03:58:23.778Z,9.90
2019-05-26T04:00:55.883Z,10.00
2019-05-26T04:03:27.637Z,10.00
2019-05-26T04:05:59.117Z,10.10
2019-05-26T04:08:30.617Z,10.20
2019-05-26T04:11:02.028Z,10.30
2019-05-26T04:13:33.600Z,10.50
2019-05-26T04:16:05.512Z,10.60
2019-05-26T04:18:36.988Z,10.70
2019-05-26T04:21:08.552Z,10.90
2019-05-26T04:23:40.081Z,11.00
2019-05-26T04:26:11.549Z,11.10
2019-05-26T04:28:43.479Z,11.20
2019-05-26T04:31:15.065Z,11.10
2019-05-26T04:33:46.587Z,11.20
2019-05-26T04:36:18.342Z,11.20
2019-05-26T04:38:50.198Z,11.20
2019-05-26T04:41:22.083Z,11.20
2019-05-26T04:43:53.498Z,11.20
2019-05-26T04:46:24.945Z,11.20
2019-05-26T04:48:56.464Z,11.20
2019-05-26T04:51:27.988Z,11.20
2019-05-26T04:53:59.405Z,11.30
2019-05-26T04:56:30.897Z,11.40
2019-05-26T04:59:02.326Z,11.50
2019-05-26T05:01:33.848Z,11.50
2019-05-26T05:04:05.365Z,11.50
2019-05-26T05:06:37.035Z,11.40
2019-05-26T05:09:09.190Z,11.40
2019-05-26T05:11:40.635Z,11.50
2019-05-26T05:14:11.981Z,11.50
2019-05-26T05:16:43.389Z,11.50
2019-05-26T05:19:14.874Z,11.50
2019-05-26T05:21:46.525Z,11.40
2019-05-26T05:24:18.342Z,11.40
2019-05-26T05:26:50.384Z,11.70
2019-05-26T05:29:21.919Z,11.80
2019-05-26T05:31:53.361Z,11.90
2019-05-26T05:34:24.901Z,12.10
2019-05-26T05:36:57.373Z,12.00
2019-05-26T05:39:28.860Z,12.10
2019-05-26T05:42:00.641Z,12.20
2019-05-26T05:44:32.143Z,12.30
2019-05-26T05:47:04.799Z,12.20
2019-05-26T05:49:36.379Z,12.30
2019-05-26T05:52:07.862Z,12.50
2019-05-26T05:54:39.254Z,12.60
2019-05-26T05:57:11.044Z,12.60
2019-05-26T05:59:42.473Z,12.70
2019-05-26T06:02:15.091Z,12.80
2019-05-26T06:04:46.669Z,13.00
2019-05-26T06:07:18.254Z,13.30
2019-05-26T06:09:50.283Z,13.50
2019-05-26T06:12:21.806Z,13.60
2019-05-26T06:14:53.279Z,13.70
2019-05-26T06:17:24.870Z,13.80
2019-05-26T06:19:56.438Z,14.10
2019-05-26T06:22:27.911Z,14.30
2019-05-26T06:24:59.323Z,14.70
2019-05-26T06:27:30.771Z,14.90
2019-05-26T06:30:02.229Z,15.20
2019-05-26T06:32:34.257Z,15.30
2019-05-26T06:35:07.418Z,15.30
2019-05-26T06:37:38.959Z,15.30
2019-05-26T06:40:11.376Z,15.40
2019-05-26T06:42:42.853Z,15.70
2019-05-26T06:45:16.045Z,15.90
2019-05-26T06:47:48.775Z,15.90
2019-05-26T06:50:20.342Z,16.00
2019-05-26T06:52:51.863Z,16.10
2019-05-26T06:55:24.734Z,16.30
2019-05-26T06:57:56.211Z,16.40
2019-05-26T07:00:28.166Z,16.50
2019-05-26T07:02:59.689Z,16.80
2019-05-26T07:05:31.164Z,17.00
2019-05-26T07:08:02.643Z,17.10
2019-05-26T07:10:34.365Z,17.10
2019-05-26T07:13:05.942Z,17.30
2019-05-26T07:15:37.450Z,17.50
2019-05-26T07:18:09.200Z,17.80
2019-05-26T07:20:40.619Z,18.00
2019-05-26T07:23:13.181Z,18.20
2019-05-26T07:25:44.735Z,18.50
2019-05-26T07:28:16.613Z,18.70
2019-05-26T07:30:48.408Z,18.90
2019-05-26T07:33:19.897Z,18.90
2019-05-26T07:35:52.452Z,18.80
2019-05-26T07:38:23.856Z,18.70
2019-05-26T07:40:56.113Z,18.60
2019-05-26T07:43:28.345Z,18.70
2019-05-26T07:46:00.357Z,19.00
2019-05-26T07:48:35.600Z,19.30
2019-05-26T07:51:05.010Z,19.60
2019-05-26T07:53:36.508Z,19.60
2019-05-26T07:56:08.091Z,19.50
2019-05-26T07:58:39.445Z,19.40
2019-05-26T08:01:11.254Z,19.40
2019-05-26T08:03:42.563Z,19.70
2019-05-26T08:06:14.026Z,19.90
2019-05-26T08:08:45.530Z,19.90
2019-05-26T08:11:17.059Z,20.10
2019-05-26T08:13:48.950Z,20.30
2019-05-26T08:16:21.081Z,20.40
2019-05-26T08:18:52.892Z,20.60
2019-05-26T08:21:24.289Z,20.80
2019-05-26T08:23:56.142Z,20.90
2019-05-26T08:26:27.985Z,21.10
2019-05-26T08:28:59.438Z,21.30
2019-05-26T08:31:30.842Z,21.40
2019-05-26T08:34:02.336Z,21.70
2019-05-26T08:36:34.395Z,21.70
2019-05-26T08:39:08.832Z,21.60
2019-05-26T08:41:40.252Z,21.80
2019-05-26T08:44:11.710Z,22.20
2019-05-26T08:46:43.203Z,22.30
2019-05-26T08:49:16.506Z,22.30
2019-05-26T08:51:47.997Z,22.20
2019-05-26T08:54:19.836Z,22.20
2019-05-26T08:56:51.323Z,22.50
2019-05-26T08:59:23.124Z,22.70
2019-05-26T09:01:55.018Z,22.70
2019-05-26T09:04:26.555Z,22.60
2019-05-26T09:06:58.358Z,22.80
2019-05-26T09:09:29.735Z,22.80
2019-05-26T09:12:01.128Z,22.80
2019-05-26T09:14:32.491Z,23.00
2019-05-26T09:17:04.367Z,22.80
2019-05-26T09:19:35.760Z,23.00
2019-05-26T09:22:07.421Z,23.20
2019-05-26T09:24:39.173Z,23.40
2019-05-26T09:27:10.664Z,23.60
2019-05-26T09:29:42.195Z,23.60
2019-05-26T09:32:13.712Z,23.70
2019-05-26T09:34:45.188Z,23.90
2019-05-26T09:37:17.082Z,24.30
2019-05-26T09:39:48.779Z,24.40
2019-05-26T09:42:22.513Z,24.30
2019-05-26T09:44:54.383Z,23.50
2019-05-26T09:47:26.206Z,23.60
2019-05-26T09:49:57.687Z,24.00
2019-05-26T09:52:29.183Z,24.70
2019-05-26T09:55:00.672Z,25.20
2019-05-26T09:57:32.130Z,25.40
2019-05-26T10:00:03.635Z,25.20
2019-05-26T10:02:35.711Z,25.30
2019-05-26T10:05:07.687Z,25.30
2019-05-26T10:07:39.078Z,25.50
2019-05-26T10:10:11.409Z,25.50
2019-05-26T10:12:43.188Z,25.60
2019-05-26T10:15:15.352Z,26.00
2019-05-26T10:17:46.773Z,26.20
2019-05-26T10:20:18.482Z,26.60
2019-05-26T10:22:50.008Z,26.70
2019-05-26T10:25:21.547Z,27.00
2019-05-26T10:27:53.011Z,26.70
2019-05-26T10:30:24.666Z,26.80
2019-05-26T10:32:56.579Z,26.90
2019-05-26T10:35:28.301Z,26.80
2019-05-26T10:37:59.768Z,26.90
2019-05-26T10:40:31.266Z,26.50
2019-05-26T10:43:02.668Z,26.50
2019-05-26T10:45:34.558Z,26.30
2019-05-26T10:48:06.099Z,26.30
2019-05-26T10:50:37.578Z,26.70
2019-05-26T10:53:09.273Z,27.00
2019-05-26T10:55:41.021Z,27.30
2019-05-26T10:58:12.592Z,27.00
2019-05-26T11:00:44.556Z,26.90
2019-05-26T11:03:16.067Z,26.50
2019-05-26T11:05:47.709Z,26.30
2019-05-26T11:08:19.405Z,26.70
2019-05-26T11:10:50.991Z,27.10
2019-05-26T11:13:22.533Z,27.30
2019-05-26T11:15:53.942Z,27.20
2019-05-26T11:18:26.503Z,27.10
2019-05-26T11:20:58.091Z,26.60
2019-05-26T11:23:29.621Z,26.40
2019-05-26T11:26:01.014Z,26.50
2019-05-26T11:28:32.509Z,26.50
2019-05-26T11:31:04.004Z,26.90
2019-05-26T11:33:35.489Z,27.20
2019-05-26T11:36:07.227Z,27.80
2019-05-26T11:38:39.775Z,28.30
2019-05-26T11:41:11.256Z,28.20
2019-05-26T11:43:42.800Z,28.20
2019-05-26T11:46:16.675Z,28.70
2019-05-26T11:48:47.723Z,29.00
2019-05-26T11:51:19.222Z,29.20
2019-05-26T11:53:50.840Z,29.00
2019-05-26T11:56:22.386Z,29.00
2019-05-26T11:58:54.037Z,29.00
2019-05-26T12:01:25.431Z,28.90
2019-05-26T12:03:57.052Z,28.20
2019-05-26T12:06:28.446Z,26.80
2019-05-26T12:09:00.051Z,25.80
2019-05-26T12:11:31.804Z,26.00
2019-05-26T12:14:03.291Z,26.70
2019-05-26T12:16:35.086Z,27.70
2019-05-26T12:19:06.760Z,28.00
2019-05-26T12:21:38.447Z,27.50
2019-05-26T12:24:09.987Z,25.90
2019-05-26T12:26:41.482Z,25.20
2019-05-26T12:29:12.969Z,25.50
2019-05-26T12:31:44.370Z,25.50
2019-05-26T12:34:15.853Z,25.10
2019-05-26T12:36:47.521Z,25.50
2019-05-26T12:39:19.297Z,26.90
2019-05-26T12:41:51.384Z,28.20
2019-05-26T12:44:22.811Z,28.90
2019-05-26T12:46:55.369Z,28.20
2019-05-26T12:49:28.133Z,27.70
2019-05-26T12:51:59.581Z,27.90
2019-05-26T12:54:31.476Z,28.60
2019-05-26T12:57:02.949Z,29.20
2019-05-26T12:59:34.830Z,28.90
2019-05-26T13:02:06.743Z,29.00
2019-05-26T13:04:38.136Z,28.40
2019-05-26T13:07:09.601Z,28.30
2019-05-26T13:09:40.997Z,28.20
2019-05-26T13:12:13.624Z,28.40
2019-05-26T13:14:45.116Z,29.00
2019-05-26T13:17:16.594Z,29.00
2019-05-26T13:19:48.076Z,28.70
2019-05-26T13:22:20.866Z,28.70
2019-05-26T13:24:52.367Z,28.70
2019-05-26T13:27:23.908Z,29.00
2019-05-26T13:29:55.432Z,28.80
2019-05-26T13:32:26.905Z,28.90
2019-05-26T13:34:58.424Z,28.50
2019-05-26T13:37:30.201Z,28.20
2019-05-26T13:40:01.713Z,28.10
2019-05-26T13:42:33.149Z,28.40
2019-05-26T13:45:20.784Z,28.50
2019-05-26T13:47:38.511Z,28.70
2019-05-26T13:50:11.389Z,28.60
2019-05-26T13:52:42.854Z,28.90
2019-05-26T13:55:16.108Z,29.10
2019-05-26T13:57:49.580Z,28.90
2019-05-26T14:00:22.786Z,28.20
2019-05-26T14:02:54.524Z,27.40
2019-05-26T14:05:26.036Z,27.20
2019-05-26T14:07:57.521Z,27.30
2019-05-26T14:10:35.001Z,27.40
2019-05-26T14:13:07.910Z,27.30
2019-05-26T14:15:39.709Z,27.10
2019-05-26T14:18:11.395Z,27.30
2019-05-26T14:20:43.401Z,27.90
2019-05-26T14:23:14.798Z,27.80
2019-05-26T14:25:46.516Z,27.70
2019-05-26T14:28:18.096Z,27.40
2019-05-26T14:30:49.783Z,28.00
2019-05-26T14:33:21.253Z,28.70
2019-05-26T14:35:52.685Z,29.00
2019-05-26T14:38:24.207Z,29.40
2019-05-26T14:40:55.621Z,29.20
2019-05-26T14:43:27.241Z,28.60
2019-05-26T14:45:59.025Z,27.80
2019-05-26T14:48:30.608Z,27.30
2019-05-26T14:51:02.577Z,27.10
2019-05-26T14:53:34.035Z,26.60
2019-05-26T14:56:05.536Z,26.10
2019-05-26T14:58:36.930Z,26.20
2019-05-26T15:01:08.399Z,26.90
2019-05-26T15:03:39.865Z,27.30
2019-05-26T15:06:11.196Z,27.10
2019-05-26T15:08:42.674Z,27.30
2019-05-26T15:11:14.802Z,27.60
2019-05-26T15:13:46.182Z,27.60
2019-05-26T15:16:17.659Z,27.90
2019-05-26T15:18:49.042Z,28.20
2019-05-26T15:21:20.538Z,28.50
2019-05-26T15:23:52.677Z,28.30
2019-05-26T15:26:24.076Z,28.10
2019-05-26T15:28:55.509Z,28.20
2019-05-26T15:31:27.062Z,28.10
2019-05-26T15:33:58.545Z,27.90
2019-05-26T15:36:30.432Z,27.40
2019-05-26T15:39:02.306Z,27.30
2019-05-26T15:41:35.141Z,27.40
2019-05-26T15:44:06.749Z,27.60
2019-05-26T15:46:38.540Z,27.40
2019-05-26T15:49:10.061Z,27.40
2019-05-26T15:51:41.477Z,27.40
2019-05-26T15:54:13.052Z,27.20
2019-05-26T15:56:44.421Z,26.90
2019-05-26T15:59:15.836Z,26.50
2019-05-26T16:01:49.150Z,26.40
2019-05-26T16:04:20.642Z,26.40
2019-05-26T16:06:52.225Z,26.40
2019-05-26T16:09:25.039Z,26.60
2019-05-26T16:11:56.662Z,26.80
2019-05-26T16:14:28.357Z,26.60
2019-05-26T16:16:59.858Z,26.50
2019-05-26T16:19:31.243Z,26.40
2019-05-26T16:22:02.776Z,26.10
2019-05-26T16:24:34.192Z,25.60
2019-05-26T16:27:18.599Z,25.60
2019-05-26T16:29:38.760Z,25.70
2019-05-26T16:32:10.303Z,25.80
2019-05-26T16:34:42.012Z,25.90
2019-05-26T16:37:13.599Z,25.60
2019-05-26T16:39:44.930Z,25.50
2019-05-26T16:42:16.635Z,25.40
2019-05-26T16:44:48.490Z,25.20
2019-05-26T16:47:20.318Z,25.00
2019-05-26T16:49:51.651Z,24.80
2019-05-26T16:52:23.163Z,24.80
2019-05-26T16:54:54.723Z,24.50
2019-05-26T16:57:26.194Z,24.60
2019-05-26T16:59:57.693Z,24.60
2019-05-26T17:02:29.136Z,24.50
2019-05-26T17:05:01.769Z,24.40
2019-05-26T17:07:34.208Z,24.40
2019-05-26T17:10:06.903Z,24.50
2019-05-26T17:12:38.482Z,24.40
2019-05-26T17:15:10.032Z,24.30
2019-05-26T17:17:41.507Z,24.20
2019-05-26T17:20:13.284Z,24.20
2019-05-26T17:22:44.816Z,24.30
2019-05-26T17:25:18.262Z,24.20
2019-05-26T17:27:49.778Z,24.10
2019-05-26T17:30:22.342Z,23.90
2019-05-26T17:32:54.019Z,23.80
2019-05-26T17:37:57.926Z,23.80
2019-05-26T17:40:29.652Z,23.80
2019-05-26T17:43:01.470Z,23.60
2019-05-26T17:45:32.901Z,23.30
2019-05-26T17:48:04.479Z,22.90
2019-05-26T17:50:36.010Z,22.70
2019-05-26T17:53:07.486Z,22.50
2019-05-26T17:55:39.029Z,22.30
2019-05-26T17:58:10.560Z,23.50
2019-05-26T18:00:42.361Z,22.10
2019-05-26T18:03:13.773Z,22.00
2019-05-26T18:05:45.437Z,21.40
2019-05-26T18:08:17.385Z,21.80
2019-05-26T18:10:48.932Z,21.70
2019-05-26T18:13:21.020Z,21.60
2019-05-26T18:15:52.596Z,21.50
2019-05-26T18:18:24.579Z,21.40
2019-05-26T18:20:56.056Z,21.30
2019-05-26T18:23:27.457Z,21.20
2019-05-26T18:25:58.989Z,21.10
2019-05-26T18:28:30.464Z,21.00
2019-05-26T18:31:02.007Z,20.80
2019-05-26T18:33:33.524Z,20.50
2019-05-26T18:36:04.991Z,20.00
2019-05-26T18:38:36.408Z,19.60
2019-05-26T18:41:08.921Z,19.20
2019-05-26T18:43:40.335Z,18.80
2019-05-26T18:46:12.179Z,18.50
2019-05-26T18:48:43.653Z,18.20
2019-05-26T18:51:15.140Z,18.00
2019-05-26T18:53:48.058Z,17.80
2019-05-26T18:56:19.516Z,17.50
2019-05-26T18:58:50.946Z,17.20
2019-05-26T19:01:22.414Z,17.00
2019-05-26T19:03:53.756Z,16.90
2019-05-26T19:06:25.266Z,16.60
2019-05-26T19:08:57.089Z,16.50
2019-05-26T19:11:28.958Z,16.30
2019-05-26T19:14:00.604Z,16.20
2019-05-26T19:16:32.341Z,16.00
2019-05-26T19:19:05.184Z,15.80
2019-05-26T19:21:36.747Z,15.80
2019-05-26T19:24:08.306Z,15.70
2019-05-26T19:26:39.783Z,15.60
2019-05-26T19:29:11.287Z,15.50
2019-05-26T19:31:43.831Z,15.40
2019-05-26T19:34:15.302Z,15.30
2019-05-26T19:36:46.684Z,15.20
2019-05-26T19:39:18.241Z,15.20
2019-05-26T19:41:49.671Z,15.10
2019-05-26T19:44:21.145Z,15.10
2019-05-26T19:46:53.841Z,15.00
2019-05-26T19:49:25.426Z,15.00
2019-05-26T19:51:57.245Z,14.90
2019-05-26T19:54:28.729Z,14.70
2019-05-26T19:57:00.160Z,14.70
2019-05-26T19:59:31.665Z,14.60
2019-05-26T20:02:17.384Z,14.50
2019-05-26T20:04:36.593Z,14.50
2019-05-26T20:07:08.095Z,14.50
2019-05-26T20:09:39.798Z,14.40
2019-05-26T20:12:11.671Z,14.30
2019-05-26T20:14:43.139Z,14.20
2019-05-26T20:17:15.012Z,14.10
2019-05-26T20:19:46.519Z,14.10
2019-05-26T20:22:18.006Z,14.00
2019-05-26T20:24:49.333Z,14.00
2019-05-26T20:27:21.357Z,14.00
2019-05-26T20:29:53.080Z,14.00
2019-05-26T20:32:24.557Z,14.00
2019-05-26T20:34:56.031Z,14.00
2019-05-26T20:37:27.584Z,14.00
2019-05-26T20:39:59.213Z,13.90
2019-05-26T20:42:30.880Z,13.90
2019-05-26T20:45:02.605Z,13.90
2019-05-26T20:47:35.063Z,13.90
2019-05-26T20:50:07.048Z,13.90
2019-05-26T20:52:38.981Z,13.90
2019-05-26T20:55:11.042Z,13.80
2019-05-26T20:57:42.709Z,13.70
2019-05-26T21:00:15.910Z,13.60
2019-05-26T21:02:47.712Z,13.60
2019-05-26T21:05:20.360Z,13.50
2019-05-26T21:07:51.801Z,13.50
2019-05-26T21:10:23.522Z,13.40
2019-05-26T21:12:54.924Z,13.40
2019-05-26T21:15:26.459Z,13.40
2019-05-26T21:17:58.301Z,13.60
2019-05-26T21:20:29.759Z,13.60
2019-05-26T21:23:01.576Z,13.70
2019-05-26T21:25:33.160Z,13.70
2019-05-26T21:28:04.635Z,13.70
2019-05-26T21:30:36.414Z,13.90
2019-05-26T21:33:07.893Z,14.30
2019-05-26T21:35:39.298Z,14.60
2019-05-26T21:38:10.719Z,14.80
2019-05-26T21:40:42.228Z,14.90
2019-05-26T21:43:13.644Z,15.00
2019-05-26T21:45:44.972Z,15.10
2019-05-26T21:48:16.377Z,15.10
2019-05-26T21:50:48.051Z,15.00
2019-05-26T21:53:19.637Z,15.00
2019-05-26T21:55:50.978Z,14.80
2019-05-26T22:00:55.054Z,14.70
2019-05-26T22:03:26.672Z,14.70
2019-05-26T22:05:58.210Z,14.70
2019-05-26T22:08:29.636Z,14.70
2019-05-26T22:11:01.317Z,14.80
2019-05-26T22:13:33.967Z,14.80
2019-05-26T22:16:05.760Z,14.90
2019-05-26T22:18:37.907Z,14.80
2019-05-26T22:21:09.484Z,14.80
2019-05-26T22:23:40.901Z,14.80
2019-05-26T22:26:12.442Z,15.00
2019-05-26T22:28:43.946Z,15.10
2019-05-26T22:31:15.360Z,15.10
2019-05-26T22:33:47.585Z,15.10
2019-05-26T22:36:19.037Z,15.10
2019-05-26T22:38:50.791Z,15.00
2019-05-26T22:41:22.564Z,15.00
2019-05-26T22:43:54.029Z,14.90
2019-05-26T22:46:25.427Z,14.70
2019-05-26T22:48:57.200Z,14.50
2019-05-26T22:51:28.685Z,14.40
2019-05-26T22:54:00.485Z,14.20
2019-05-26T22:56:32.138Z,14.20
2019-05-26T22:59:03.877Z,14.10
2019-05-26T23:01:35.367Z,14.20
2019-05-26T23:04:07.197Z,14.30
2019-05-26T23:06:38.666Z,14.50
2019-05-26T23:09:10.439Z,14.50
2019-05-26T23:11:42.069Z,14.60
2019-05-26T23:14:13.678Z,14.80
2019-05-26T23:16:45.058Z,14.80
2019-05-26T23:19:19.838Z,14.90
2019-05-26T23:21:50.377Z,14.80
2019-05-26T23:24:21.944Z,14.80
2019-05-26T23:26:53.465Z,14.80
2019-05-26T23:29:24.855Z,14.90
2019-05-26T23:31:56.418Z,14.90
2019-05-26T23:34:28.168Z,14.90
2019-05-26T23:37:00.111Z,15.10
2019-05-26T23:39:31.898Z,15.00
2019-05-26T23:42:03.344Z,15.00
2019-05-26T23:44:34.861Z,14.90
2019-05-26T23:47:07.317Z,14.80
2019-05-26T23:49:38.840Z,14.80
2019-05-26T23:52:10.826Z,14.80
2019-05-26T23:54:42.395Z,14.70
2019-05-26T23:57:13.859Z,14.70
2019-05-26T23:59:45.211Z,14.60
